sensor_id;sensor_type;location;lat;lon;timestamp;P1;durP1;ratioP1;P2;durP2;ratioP2
72464;SDS011;60471;52.150;4.508;2023-12-07T10:49:54;133.85;;;23.58;;
72464;SDS011;60471;52.150;4.508;2023-12-07T10:52:28;99.93;;;22.50;;
72464;SDS011;60471;52.150;4.508;2023-12-07T10:55:03;55.33;;;16.67;;
72464;SDS011;60471;52.150;4.508;2023-12-07T10:57:35;115.45;;;24.08;;
72464;SDS011;60471;52.150;4.508;2023-12-07T11:00:04;84.88;;;24.25;;
72464;SDS011;60471;52.150;4.508;2023-12-07T11:02:34;142.75;;;26.92;;
72464;SDS011;60471;52.150;4.508;2023-12-07T11:05:02;108.55;;;26.58;;
72464;SDS011;60471;52.150;4.508;2023-12-07T11:07:33;83.25;;;25.65;;
72464;SDS011;60471;52.150;4.508;2023-12-07T11:10:25;62.50;;;22.20;;
72464;SDS011;60471;52.150;4.508;2023-12-07T11:15:53;61.97;;;22.98;;
72464;SDS011;60471;52.150;4.508;2023-12-07T11:18:19;71.78;;;26.77;;
72464;SDS011;60471;52.150;4.508;2023-12-07T11:20:46;75.68;;;25.67;;
72464;SDS011;60471;52.150;4.508;2023-12-07T11:23:19;68.80;;;25.83;;
72464;SDS011;60471;52.150;4.508;2023-12-07T11:25:46;67.45;;;27.35;;
72464;SDS011;60471;52.150;4.508;2023-12-07T11:28:14;63.38;;;23.60;;
72464;SDS011;60471;52.150;4.508;2023-12-07T11:30:41;61.70;;;26.15;;
72464;SDS011;60471;52.150;4.508;2023-12-07T11:33:10;64.55;;;25.60;;
72464;SDS011;60471;52.150;4.508;2023-12-07T11:38:28;58.92;;;22.33;;
72464;SDS011;60471;52.150;4.508;2023-12-07T11:40:55;66.28;;;25.08;;
72464;SDS011;60471;52.150;4.508;2023-12-07T11:46:07;62.50;;;24.73;;
72464;SDS011;60471;52.150;4.508;2023-12-07T11:48:33;56.90;;;24.52;;
72464;SDS011;60471;52.150;4.508;2023-12-07T11:51:00;55.88;;;25.92;;
72464;SDS011;60471;52.150;4.508;2023-12-07T11:53:33;61.53;;;25.65;;
72464;SDS011;60471;52.150;4.508;2023-12-07T11:56:02;52.90;;;23.58;;
72464;SDS011;60471;52.150;4.508;2023-12-07T11:58:31;50.28;;;23.92;;
72464;SDS011;60471;52.150;4.508;2023-12-07T12:01:00;49.53;;;23.13;;
72464;SDS011;60471;52.150;4.508;2023-12-07T12:03:27;51.42;;;23.23;;
72464;SDS011;60471;52.150;4.508;2023-12-07T12:05:55;57.90;;;25.35;;
72464;SDS011;60471;52.150;4.508;2023-12-07T12:08:21;55.80;;;24.65;;
72464;SDS011;60471;52.150;4.508;2023-12-07T12:10:49;54.03;;;23.65;;
72464;SDS011;60471;52.150;4.508;2023-12-07T12:13:18;49.03;;;25.60;;
72464;SDS011;60471;52.150;4.508;2023-12-07T12:15:45;54.42;;;26.48;;
72464;SDS011;60471;52.150;4.508;2023-12-07T12:18:12;46.28;;;22.88;;
72464;SDS011;60471;52.150;4.508;2023-12-07T12:20:39;52.72;;;24.85;;
72464;SDS011;60471;52.150;4.508;2023-12-07T12:23:05;56.42;;;26.65;;
72464;SDS011;60471;52.150;4.508;2023-12-07T12:25:32;57.58;;;28.30;;
72464;SDS011;60471;52.150;4.508;2023-12-07T12:28:03;53.75;;;26.90;;
72464;SDS011;60471;52.150;4.508;2023-12-07T12:30:32;55.22;;;26.70;;
72464;SDS011;60471;52.150;4.508;2023-12-07T12:32:59;55.78;;;28.20;;
72464;SDS011;60471;52.150;4.508;2023-12-07T12:35:26;55.60;;;24.52;;
72464;SDS011;60471;52.150;4.508;2023-12-07T12:37:52;53.53;;;25.70;;
72464;SDS011;60471;52.150;4.508;2023-12-07T12:40:21;51.20;;;26.17;;
72464;SDS011;60471;52.150;4.508;2023-12-07T12:42:50;60.08;;;28.08;;
72464;SDS011;60471;52.150;4.508;2023-12-07T12:45:18;51.40;;;26.30;;
72464;SDS011;60471;52.150;4.508;2023-12-07T12:47:46;57.03;;;29.10;;
72464;SDS011;60471;52.150;4.508;2023-12-07T12:53:05;49.90;;;26.08;;
72464;SDS011;60471;52.150;4.508;2023-12-07T12:55:38;54.40;;;28.13;;
72464;SDS011;60471;52.150;4.508;2023-12-07T12:58:09;49.05;;;27.00;;
72464;SDS011;60471;52.150;4.508;2023-12-07T13:00:39;51.65;;;25.98;;
72464;SDS011;60471;52.150;4.508;2023-12-07T13:03:10;59.55;;;30.23;;
72464;SDS011;60471;52.150;4.508;2023-12-07T13:05:38;52.63;;;27.52;;
72464;SDS011;60471;52.150;4.508;2023-12-07T13:08:05;48.65;;;29.98;;
72464;SDS011;60471;52.150;4.508;2023-12-07T13:10:31;49.30;;;27.67;;
72464;SDS011;60471;52.150;4.508;2023-12-07T13:12:57;48.03;;;25.70;;
72464;SDS011;60471;52.150;4.508;2023-12-07T13:15:23;54.08;;;25.80;;
72464;SDS011;60471;52.150;4.508;2023-12-07T13:17:51;50.88;;;27.27;;
72464;SDS011;60471;52.150;4.508;2023-12-07T13:20:17;54.15;;;26.58;;
72464;SDS011;60471;52.150;4.508;2023-12-07T13:22:43;52.85;;;26.50;;
72464;SDS011;60471;52.150;4.508;2023-12-07T13:25:09;51.03;;;27.63;;
72464;SDS011;60471;52.150;4.508;2023-12-07T13:27:37;47.05;;;26.92;;
72464;SDS011;60471;52.150;4.508;2023-12-07T13:30:04;48.63;;;26.13;;
72464;SDS011;60471;52.150;4.508;2023-12-07T13:32:33;48.25;;;27.23;;
72464;SDS011;60471;52.150;4.508;2023-12-07T13:35:00;47.13;;;25.80;;
72464;SDS011;60471;52.150;4.508;2023-12-07T13:37:27;43.85;;;24.73;;
72464;SDS011;60471;52.150;4.508;2023-12-07T13:39:53;43.15;;;25.23;;
72464;SDS011;60471;52.150;4.508;2023-12-07T13:42:23;43.75;;;25.70;;
72464;SDS011;60471;52.150;4.508;2023-12-07T13:44:54;41.45;;;24.38;;
72464;SDS011;60471;52.150;4.508;2023-12-07T13:47:24;43.80;;;25.30;;
72464;SDS011;60471;52.150;4.508;2023-12-07T13:49:57;40.47;;;23.85;;
72464;SDS011;60471;52.150;4.508;2023-12-07T13:52:25;37.08;;;21.83;;
72464;SDS011;60471;52.150;4.508;2023-12-07T13:54:52;40.63;;;24.30;;
72464;SDS011;60471;52.150;4.508;2023-12-07T13:57:19;41.70;;;24.38;;
72464;SDS011;60471;52.150;4.508;2023-12-07T13:59:46;46.28;;;24.85;;
72464;SDS011;60471;52.150;4.508;2023-12-07T14:02:12;43.92;;;25.00;;
72464;SDS011;60471;52.150;4.508;2023-12-07T14:04:39;46.13;;;27.35;;
72464;SDS011;60471;52.150;4.508;2023-12-07T14:07:12;45.80;;;25.95;;
72464;SDS011;60471;52.150;4.508;2023-12-07T14:09:41;42.78;;;25.73;;
72464;SDS011;60471;52.150;4.508;2023-12-07T14:12:10;42.58;;;26.48;;
72464;SDS011;60471;52.150;4.508;2023-12-07T14:14:41;43.42;;;26.00;;
72464;SDS011;60471;52.150;4.508;2023-12-07T14:17:14;45.65;;;27.08;;
72464;SDS011;60471;52.150;4.508;2023-12-07T14:19:43;44.67;;;25.08;;
72464;SDS011;60471;52.150;4.508;2023-12-07T14:22:09;42.33;;;26.85;;
72464;SDS011;60471;52.150;4.508;2023-12-07T14:24:36;39.33;;;25.88;;
72464;SDS011;60471;52.150;4.508;2023-12-07T14:27:03;45.03;;;26.95;;
72464;SDS011;60471;52.150;4.508;2023-12-07T14:29:30;47.55;;;28.02;;
72464;SDS011;60471;52.150;4.508;2023-12-07T14:31:58;50.38;;;27.55;;
72464;SDS011;60471;52.150;4.508;2023-12-07T14:34:25;49.75;;;28.23;;
72464;SDS011;60471;52.150;4.508;2023-12-07T14:36:52;47.50;;;26.15;;
72464;SDS011;60471;52.150;4.508;2023-12-07T14:39:19;49.33;;;26.27;;
72464;SDS011;60471;52.150;4.508;2023-12-07T14:41:47;41.85;;;25.92;;
72464;SDS011;60471;52.150;4.508;2023-12-07T14:44:15;46.10;;;26.33;;
72464;SDS011;60471;52.150;4.508;2023-12-07T14:46:46;46.28;;;27.42;;
72464;SDS011;60471;52.150;4.508;2023-12-07T14:49:17;44.08;;;27.92;;
72464;SDS011;60471;52.150;4.508;2023-12-07T14:51:47;44.15;;;27.10;;
72464;SDS011;60471;52.150;4.508;2023-12-07T14:54:14;46.28;;;26.30;;
72464;SDS011;60471;52.150;4.508;2023-12-07T14:56:41;45.95;;;27.50;;
72464;SDS011;60471;52.150;4.508;2023-12-07T14:59:08;42.63;;;25.55;;
72464;SDS011;60471;52.150;4.508;2023-12-07T15:01:37;44.95;;;25.92;;
72464;SDS011;60471;52.150;4.508;2023-12-07T15:04:04;46.22;;;27.80;;
72464;SDS011;60471;52.150;4.508;2023-12-07T15:06:31;47.38;;;27.10;;
72464;SDS011;60471;52.150;4.508;2023-12-07T15:08:59;46.55;;;26.85;;
72464;SDS011;60471;52.150;4.508;2023-12-07T15:11:25;48.33;;;27.23;;
72464;SDS011;60471;52.150;4.508;2023-12-07T15:13:52;47.20;;;27.33;;
72464;SDS011;60471;52.150;4.508;2023-12-07T15:16:18;46.20;;;26.75;;
72464;SDS011;60471;52.150;4.508;2023-12-07T15:18:44;47.28;;;27.23;;
72464;SDS011;60471;52.150;4.508;2023-12-07T15:21:11;45.15;;;28.02;;
72464;SDS011;60471;52.150;4.508;2023-12-07T15:23:40;43.92;;;26.20;;
72464;SDS011;60471;52.150;4.508;2023-12-07T15:26:09;47.03;;;27.88;;
72464;SDS011;60471;52.150;4.508;2023-12-07T15:28:36;45.47;;;27.15;;
72464;SDS011;60471;52.150;4.508;2023-12-07T15:31:04;46.35;;;27.20;;
72464;SDS011;60471;52.150;4.508;2023-12-07T15:33:32;51.47;;;26.70;;
72464;SDS011;60471;52.150;4.508;2023-12-07T15:36:00;47.03;;;27.55;;
72464;SDS011;60471;52.150;4.508;2023-12-07T15:38:28;46.05;;;28.48;;
72464;SDS011;60471;52.150;4.508;2023-12-07T15:40:56;49.30;;;27.63;;
72464;SDS011;60471;52.150;4.508;2023-12-07T15:43:25;46.67;;;28.50;;
72464;SDS011;60471;52.150;4.508;2023-12-07T15:45:52;44.85;;;26.65;;
72464;SDS011;60471;52.150;4.508;2023-12-07T15:48:18;47.45;;;27.67;;
72464;SDS011;60471;52.150;4.508;2023-12-07T15:50:48;46.92;;;28.77;;
72464;SDS011;60471;52.150;4.508;2023-12-07T15:53:14;49.13;;;27.77;;
72464;SDS011;60471;52.150;4.508;2023-12-07T15:55:41;47.92;;;27.25;;
72464;SDS011;60471;52.150;4.508;2023-12-07T15:58:08;48.17;;;29.55;;
72464;SDS011;60471;52.150;4.508;2023-12-07T16:00:34;49.47;;;29.23;;
72464;SDS011;60471;52.150;4.508;2023-12-07T16:03:01;48.72;;;29.67;;
72464;SDS011;60471;52.150;4.508;2023-12-07T16:05:28;47.50;;;29.42;;
72464;SDS011;60471;52.150;4.508;2023-12-07T16:07:54;52.20;;;30.55;;
72464;SDS011;60471;52.150;4.508;2023-12-07T16:10:20;52.63;;;33.17;;
72464;SDS011;60471;52.150;4.508;2023-12-07T16:12:46;51.08;;;31.63;;
72464;SDS011;60471;52.150;4.508;2023-12-07T16:15:13;52.85;;;31.05;;
72464;SDS011;60471;52.150;4.508;2023-12-07T16:17:41;55.00;;;34.20;;
72464;SDS011;60471;52.150;4.508;2023-12-07T16:20:07;53.28;;;32.13;;
72464;SDS011;60471;52.150;4.508;2023-12-07T16:22:36;52.63;;;30.90;;
72464;SDS011;60471;52.150;4.508;2023-12-07T16:25:03;54.47;;;32.15;;
72464;SDS011;60471;52.150;4.508;2023-12-07T16:27:30;52.13;;;31.02;;
72464;SDS011;60471;52.150;4.508;2023-12-07T16:29:56;50.65;;;31.58;;
72464;SDS011;60471;52.150;4.508;2023-12-07T16:32:22;55.55;;;30.38;;
72464;SDS011;60471;52.150;4.508;2023-12-07T16:34:49;49.15;;;29.75;;
72464;SDS011;60471;52.150;4.508;2023-12-07T16:37:15;48.28;;;29.95;;
72464;SDS011;60471;52.150;4.508;2023-12-07T16:39:42;49.58;;;28.67;;
72464;SDS011;60471;52.150;4.508;2023-12-07T16:42:10;50.67;;;28.30;;
72464;SDS011;60471;52.150;4.508;2023-12-07T16:44:37;50.55;;;28.35;;
72464;SDS011;60471;52.150;4.508;2023-12-07T16:47:03;50.55;;;29.13;;
72464;SDS011;60471;52.150;4.508;2023-12-07T16:49:31;51.63;;;28.17;;
72464;SDS011;60471;52.150;4.508;2023-12-07T16:51:58;53.15;;;28.70;;
72464;SDS011;60471;52.150;4.508;2023-12-07T16:54:26;50.00;;;28.33;;
72464;SDS011;60471;52.150;4.508;2023-12-07T16:56:52;52.28;;;28.65;;
72464;SDS011;60471;52.150;4.508;2023-12-07T16:59:18;46.95;;;26.83;;
72464;SDS011;60471;52.150;4.508;2023-12-07T17:01:45;46.67;;;26.20;;
72464;SDS011;60471;52.150;4.508;2023-12-07T17:04:11;48.13;;;26.45;;
72464;SDS011;60471;52.150;4.508;2023-12-07T17:06:37;45.92;;;26.25;;
72464;SDS011;60471;52.150;4.508;2023-12-07T17:09:03;48.42;;;27.10;;
72464;SDS011;60471;52.150;4.508;2023-12-07T17:11:31;46.30;;;26.52;;
72464;SDS011;60471;52.150;4.508;2023-12-07T17:13:57;45.67;;;26.50;;
72464;SDS011;60471;52.150;4.508;2023-12-07T17:16:23;48.88;;;28.02;;
72464;SDS011;60471;52.150;4.508;2023-12-07T17:18:50;44.72;;;26.40;;
72464;SDS011;60471;52.150;4.508;2023-12-07T17:21:17;48.60;;;28.40;;
72464;SDS011;60471;52.150;4.508;2023-12-07T17:23:43;46.00;;;26.60;;
72464;SDS011;60471;52.150;4.508;2023-12-07T17:26:10;47.42;;;27.80;;
72464;SDS011;60471;52.150;4.508;2023-12-07T17:28:38;52.53;;;28.17;;
72464;SDS011;60471;52.150;4.508;2023-12-07T17:31:04;45.25;;;28.17;;
72464;SDS011;60471;52.150;4.508;2023-12-07T17:33:30;49.40;;;27.98;;
72464;SDS011;60471;52.150;4.508;2023-12-07T17:35:56;44.25;;;26.65;;
72464;SDS011;60471;52.150;4.508;2023-12-07T17:38:23;46.00;;;24.95;;
72464;SDS011;60471;52.150;4.508;2023-12-07T17:40:49;46.88;;;27.23;;
72464;SDS011;60471;52.150;4.508;2023-12-07T17:43:15;46.58;;;27.05;;
72464;SDS011;60471;52.150;4.508;2023-12-07T17:45:41;45.25;;;26.88;;
72464;SDS011;60471;52.150;4.508;2023-12-07T17:48:07;42.97;;;26.38;;
72464;SDS011;60471;52.150;4.508;2023-12-07T17:50:37;43.83;;;25.95;;
72464;SDS011;60471;52.150;4.508;2023-12-07T17:53:06;41.13;;;24.73;;
72464;SDS011;60471;52.150;4.508;2023-12-07T17:55:33;41.83;;;25.83;;
72464;SDS011;60471;52.150;4.508;2023-12-07T17:57:59;41.88;;;25.95;;
72464;SDS011;60471;52.150;4.508;2023-12-07T18:00:25;42.72;;;24.15;;
72464;SDS011;60471;52.150;4.508;2023-12-07T18:02:51;40.63;;;25.35;;
72464;SDS011;60471;52.150;4.508;2023-12-07T18:05:18;39.38;;;24.42;;
72464;SDS011;60471;52.150;4.508;2023-12-07T18:07:44;37.10;;;23.33;;
72464;SDS011;60471;52.150;4.508;2023-12-07T18:10:11;41.50;;;23.58;;
72464;SDS011;60471;52.150;4.508;2023-12-07T18:12:39;38.30;;;22.65;;
72464;SDS011;60471;52.150;4.508;2023-12-07T18:15:06;38.28;;;21.65;;
72464;SDS011;60471;52.150;4.508;2023-12-07T18:17:34;35.90;;;22.52;;
72464;SDS011;60471;52.150;4.508;2023-12-07T18:20:01;38.22;;;21.77;;
72464;SDS011;60471;52.150;4.508;2023-12-07T18:22:27;34.55;;;21.30;;
72464;SDS011;60471;52.150;4.508;2023-12-07T18:24:53;37.45;;;22.35;;
72464;SDS011;60471;52.150;4.508;2023-12-07T18:27:20;29.98;;;19.60;;
72464;SDS011;60471;52.150;4.508;2023-12-07T18:29:46;34.67;;;20.08;;
72464;SDS011;60471;52.150;4.508;2023-12-07T18:32:12;31.05;;;20.45;;
72464;SDS011;60471;52.150;4.508;2023-12-07T18:34:41;32.28;;;20.70;;
72464;SDS011;60471;52.150;4.508;2023-12-07T18:37:08;32.42;;;20.80;;
72464;SDS011;60471;52.150;4.508;2023-12-07T18:39:34;31.85;;;20.85;;
72464;SDS011;60471;52.150;4.508;2023-12-07T18:42:01;31.83;;;19.02;;
72464;SDS011;60471;52.150;4.508;2023-12-07T18:44:28;31.23;;;19.77;;
72464;SDS011;60471;52.150;4.508;2023-12-07T18:46:54;32.38;;;20.33;;
72464;SDS011;60471;52.150;4.508;2023-12-07T18:49:21;31.33;;;19.63;;
72464;SDS011;60471;52.150;4.508;2023-12-07T18:51:47;30.85;;;19.60;;
72464;SDS011;60471;52.150;4.508;2023-12-07T18:54:13;28.85;;;18.85;;
72464;SDS011;60471;52.150;4.508;2023-12-07T18:56:39;27.95;;;19.08;;
72464;SDS011;60471;52.150;4.508;2023-12-07T18:59:09;33.03;;;18.83;;
72464;SDS011;60471;52.150;4.508;2023-12-07T19:01:35;30.73;;;18.20;;
72464;SDS011;60471;52.150;4.508;2023-12-07T19:04:01;29.23;;;18.55;;
72464;SDS011;60471;52.150;4.508;2023-12-07T19:06:28;30.52;;;19.00;;
72464;SDS011;60471;52.150;4.508;2023-12-07T19:08:54;30.10;;;18.15;;
72464;SDS011;60471;52.150;4.508;2023-12-07T19:11:20;30.23;;;18.38;;
72464;SDS011;60471;52.150;4.508;2023-12-07T19:13:47;33.95;;;18.98;;
72464;SDS011;60471;52.150;4.508;2023-12-07T19:16:13;30.33;;;18.05;;
72464;SDS011;60471;52.150;4.508;2023-12-07T19:18:41;29.10;;;17.75;;
72464;SDS011;60471;52.150;4.508;2023-12-07T19:21:10;28.38;;;17.92;;
72464;SDS011;60471;52.150;4.508;2023-12-07T19:23:36;28.77;;;17.75;;
72464;SDS011;60471;52.150;4.508;2023-12-07T19:26:02;31.27;;;17.58;;
72464;SDS011;60471;52.150;4.508;2023-12-07T19:28:28;28.70;;;18.90;;
72464;SDS011;60471;52.150;4.508;2023-12-07T19:30:55;28.80;;;16.95;;
72464;SDS011;60471;52.150;4.508;2023-12-07T19:33:21;26.23;;;17.02;;
72464;SDS011;60471;52.150;4.508;2023-12-07T19:35:47;27.52;;;17.23;;
72464;SDS011;60471;52.150;4.508;2023-12-07T19:38:14;28.30;;;18.05;;
72464;SDS011;60471;52.150;4.508;2023-12-07T19:40:42;30.60;;;17.55;;
72464;SDS011;60471;52.150;4.508;2023-12-07T19:43:09;24.52;;;16.08;;
72464;SDS011;60471;52.150;4.508;2023-12-07T19:45:35;24.15;;;16.10;;
72464;SDS011;60471;52.150;4.508;2023-12-07T19:48:02;26.85;;;16.02;;
72464;SDS011;60471;52.150;4.508;2023-12-07T19:50:29;27.48;;;17.23;;
72464;SDS011;60471;52.150;4.508;2023-12-07T19:52:57;27.88;;;16.50;;
72464;SDS011;60471;52.150;4.508;2023-12-07T19:55:23;28.38;;;16.33;;
72464;SDS011;60471;52.150;4.508;2023-12-07T19:57:51;29.98;;;16.65;;
72464;SDS011;60471;52.150;4.508;2023-12-07T20:00:17;24.40;;;15.43;;
72464;SDS011;60471;52.150;4.508;2023-12-07T20:02:46;30.05;;;16.63;;
72464;SDS011;60471;52.150;4.508;2023-12-07T20:05:12;24.88;;;15.38;;
72464;SDS011;60471;52.150;4.508;2023-12-07T20:07:39;25.58;;;15.57;;
72464;SDS011;60471;52.150;4.508;2023-12-07T20:10:06;23.35;;;14.32;;
72464;SDS011;60471;52.150;4.508;2023-12-07T20:12:33;21.63;;;14.27;;
72464;SDS011;60471;52.150;4.508;2023-12-07T20:15:04;25.35;;;15.57;;
72464;SDS011;60471;52.150;4.508;2023-12-07T20:17:32;24.77;;;14.40;;
72464;SDS011;60471;52.150;4.508;2023-12-07T20:19:58;24.10;;;14.70;;
72464;SDS011;60471;52.150;4.508;2023-12-07T20:22:24;21.88;;;14.95;;
72464;SDS011;60471;52.150;4.508;2023-12-07T20:24:50;23.67;;;15.13;;
72464;SDS011;60471;52.150;4.508;2023-12-07T20:27:19;23.85;;;14.18;;
72464;SDS011;60471;52.150;4.508;2023-12-07T20:29:46;22.88;;;14.70;;
72464;SDS011;60471;52.150;4.508;2023-12-07T20:32:12;24.70;;;14.52;;
72464;SDS011;60471;52.150;4.508;2023-12-07T20:34:38;27.38;;;15.10;;
72464;SDS011;60471;52.150;4.508;2023-12-07T20:37:05;23.70;;;13.27;;
72464;SDS011;60471;52.150;4.508;2023-12-07T20:39:31;24.65;;;14.15;;
72464;SDS011;60471;52.150;4.508;2023-12-07T20:41:57;26.80;;;14.80;;
72464;SDS011;60471;52.150;4.508;2023-12-07T20:44:23;22.50;;;13.32;;
72464;SDS011;60471;52.150;4.508;2023-12-07T20:46:49;20.83;;;12.98;;
72464;SDS011;60471;52.150;4.508;2023-12-07T20:49:16;23.17;;;13.85;;
72464;SDS011;60471;52.150;4.508;2023-12-07T20:51:42;21.73;;;12.95;;
72464;SDS011;60471;52.150;4.508;2023-12-07T20:54:08;20.10;;;11.98;;
72464;SDS011;60471;52.150;4.508;2023-12-07T20:56:34;20.58;;;12.80;;
72464;SDS011;60471;52.150;4.508;2023-12-07T20:59:07;22.48;;;12.75;;
72464;SDS011;60471;52.150;4.508;2023-12-07T21:01:36;22.15;;;13.55;;
72464;SDS011;60471;52.150;4.508;2023-12-07T21:04:03;24.08;;;11.93;;
72464;SDS011;60471;52.150;4.508;2023-12-07T21:06:29;20.75;;;13.10;;
72464;SDS011;60471;52.150;4.508;2023-12-07T21:08:56;22.42;;;13.70;;
72464;SDS011;60471;52.150;4.508;2023-12-07T21:11:22;24.20;;;13.55;;
72464;SDS011;60471;52.150;4.508;2023-12-07T21:13:48;20.38;;;12.70;;
72464;SDS011;60471;52.150;4.508;2023-12-07T21:16:14;21.13;;;12.45;;
72464;SDS011;60471;52.150;4.508;2023-12-07T21:18:40;23.27;;;12.75;;
72464;SDS011;60471;52.150;4.508;2023-12-07T21:21:07;20.17;;;12.13;;
72464;SDS011;60471;52.150;4.508;2023-12-07T21:23:33;20.85;;;12.52;;
72464;SDS011;60471;52.150;4.508;2023-12-07T21:25:59;23.33;;;12.20;;
72464;SDS011;60471;52.150;4.508;2023-12-07T21:28:28;21.88;;;12.15;;
72464;SDS011;60471;52.150;4.508;2023-12-07T21:30:54;20.60;;;12.35;;
72464;SDS011;60471;52.150;4.508;2023-12-07T21:33:20;24.05;;;13.20;;
72464;SDS011;60471;52.150;4.508;2023-12-07T21:35:46;22.02;;;11.68;;
72464;SDS011;60471;52.150;4.508;2023-12-07T21:38:12;19.35;;;11.75;;
72464;SDS011;60471;52.150;4.508;2023-12-07T21:40:39;18.15;;;11.75;;
72464;SDS011;60471;52.150;4.508;2023-12-07T21:43:05;22.13;;;11.80;;
72464;SDS011;60471;52.150;4.508;2023-12-07T21:45:31;18.83;;;11.98;;
72464;SDS011;60471;52.150;4.508;2023-12-07T21:47:57;18.25;;;11.35;;
72464;SDS011;60471;52.150;4.508;2023-12-07T21:50:24;20.65;;;12.23;;
72464;SDS011;60471;52.150;4.508;2023-12-07T21:52:50;19.05;;;11.75;;
72464;SDS011;60471;52.150;4.508;2023-12-07T21:55:16;18.95;;;11.88;;
72464;SDS011;60471;52.150;4.508;2023-12-07T21:57:42;21.48;;;12.95;;
72464;SDS011;60471;52.150;4.508;2023-12-07T22:00:09;18.73;;;12.32;;
72464;SDS011;60471;52.150;4.508;2023-12-07T22:02:36;19.23;;;11.98;;
72464;SDS011;60471;52.150;4.508;2023-12-07T22:05:02;20.90;;;13.18;;
72464;SDS011;60471;52.150;4.508;2023-12-07T22:07:28;20.65;;;13.60;;
72464;SDS011;60471;52.150;4.508;2023-12-07T22:09:55;23.67;;;12.73;;
72464;SDS011;60471;52.150;4.508;2023-12-07T22:12:21;21.88;;;12.65;;
72464;SDS011;60471;52.150;4.508;2023-12-07T22:14:47;19.67;;;12.05;;
72464;SDS011;60471;52.150;4.508;2023-12-07T22:17:14;18.98;;;11.35;;
72464;SDS011;60471;52.150;4.508;2023-12-07T22:19:40;21.10;;;12.77;;
72464;SDS011;60471;52.150;4.508;2023-12-07T22:22:06;20.75;;;13.07;;
72464;SDS011;60471;52.150;4.508;2023-12-07T22:24:32;21.80;;;13.45;;
72464;SDS011;60471;52.150;4.508;2023-12-07T22:26:59;22.67;;;13.93;;
72464;SDS011;60471;52.150;4.508;2023-12-07T22:29:26;22.38;;;13.25;;
72464;SDS011;60471;52.150;4.508;2023-12-07T22:31:52;23.13;;;13.48;;
72464;SDS011;60471;52.150;4.508;2023-12-07T22:34:18;20.55;;;13.13;;
72464;SDS011;60471;52.150;4.508;2023-12-07T22:36:46;20.33;;;12.35;;
72464;SDS011;60471;52.150;4.508;2023-12-07T22:39:12;20.40;;;13.15;;
72464;SDS011;60471;52.150;4.508;2023-12-07T22:41:38;21.90;;;13.15;;
72464;SDS011;60471;52.150;4.508;2023-12-07T22:44:04;26.75;;;14.27;;
72464;SDS011;60471;52.150;4.508;2023-12-07T22:46:31;24.10;;;13.02;;
72464;SDS011;60471;52.150;4.508;2023-12-07T22:48:57;26.00;;;13.95;;
72464;SDS011;60471;52.150;4.508;2023-12-07T22:51:23;24.52;;;13.35;;
72464;SDS011;60471;52.150;4.508;2023-12-07T22:53:50;21.98;;;13.25;;
72464;SDS011;60471;52.150;4.508;2023-12-07T22:56:16;21.42;;;12.65;;
72464;SDS011;60471;52.150;4.508;2023-12-07T22:58:42;22.90;;;13.43;;
72464;SDS011;60471;52.150;4.508;2023-12-07T23:01:09;18.75;;;12.27;;
72464;SDS011;60471;52.150;4.508;2023-12-07T23:03:36;23.20;;;13.70;;
72464;SDS011;60471;52.150;4.508;2023-12-07T23:06:02;22.92;;;13.95;;
72464;SDS011;60471;52.150;4.508;2023-12-07T23:08:29;21.10;;;13.00;;
72464;SDS011;60471;52.150;4.508;2023-12-07T23:10:55;23.98;;;13.13;;
72464;SDS011;60471;52.150;4.508;2023-12-07T23:13:21;21.85;;;13.57;;
72464;SDS011;60471;52.150;4.508;2023-12-07T23:15:47;22.45;;;13.68;;
72464;SDS011;60471;52.150;4.508;2023-12-07T23:18:14;24.80;;;14.45;;
72464;SDS011;60471;52.150;4.508;2023-12-07T23:20:40;25.02;;;14.63;;
72464;SDS011;60471;52.150;4.508;2023-12-07T23:23:06;25.42;;;14.98;;
72464;SDS011;60471;52.150;4.508;2023-12-07T23:25:32;25.42;;;13.93;;
72464;SDS011;60471;52.150;4.508;2023-12-07T23:27:59;24.83;;;14.70;;
72464;SDS011;60471;52.150;4.508;2023-12-07T23:30:25;24.08;;;13.82;;
72464;SDS011;60471;52.150;4.508;2023-12-07T23:32:51;22.80;;;15.40;;
72464;SDS011;60471;52.150;4.508;2023-12-07T23:35:17;24.98;;;15.75;;
72464;SDS011;60471;52.150;4.508;2023-12-07T23:37:44;24.45;;;15.30;;
72464;SDS011;60471;52.150;4.508;2023-12-07T23:40:10;24.08;;;14.50;;
72464;SDS011;60471;52.150;4.508;2023-12-07T23:42:37;24.60;;;14.52;;
72464;SDS011;60471;52.150;4.508;2023-12-07T23:45:04;26.92;;;14.77;;
72464;SDS011;60471;52.150;4.508;2023-12-07T23:47:31;24.77;;;15.32;;
72464;SDS011;60471;52.150;4.508;2023-12-07T23:49:58;24.75;;;15.40;;
72464;SDS011;60471;52.150;4.508;2023-12-07T23:52:24;26.05;;;15.70;;
72464;SDS011;60471;52.150;4.508;2023-12-07T23:54:50;25.60;;;16.30;;
72464;SDS011;60471;52.150;4.508;2023-12-07T23:57:16;24.42;;;16.13;;
72464;SDS011;60471;52.150;4.508;2023-12-07T23:59:42;26.52;;;16.67;;
